createdAt,value
2019-02-18T00:02:11.076Z,7.19
2019-02-18T00:04:41.458Z,7.28
2019-02-18T00:07:14.598Z,6.79
2019-02-18T00:09:43.708Z,6.97
2019-02-18T00:12:14.038Z,7.17
2019-02-18T00:14:44.346Z,7.21
2019-02-18T00:17:14.659Z,7.27
2019-02-18T00:19:44.885Z,7.22
2019-02-18T00:22:15.187Z,7.19
2019-02-18T00:24:45.486Z,7.24
2019-02-18T00:27:15.810Z,7.16
2019-02-18T00:29:46.148Z,7.06
2019-02-18T00:32:16.442Z,6.98
2019-02-18T00:34:46.672Z,6.89
2019-02-18T00:37:24.185Z,6.95
2019-02-18T00:39:49.042Z,7.07
2019-02-18T00:42:19.344Z,7.01
2019-02-18T00:44:49.587Z,7.04
2019-02-18T00:47:19.872Z,6.99
2019-02-18T00:49:50.322Z,6.89
2019-02-18T00:52:20.588Z,6.81
2019-02-18T00:54:50.834Z,6.74
2019-02-18T00:57:21.115Z,6.73
2019-02-18T00:59:51.466Z,5.51
2019-02-18T01:02:21.753Z,5.24
2019-02-18T01:04:52.301Z,4.73
2019-02-18T01:07:22.602Z,4.25
2019-02-18T01:09:52.955Z,3.88
2019-02-18T01:12:23.432Z,3.71
2019-02-18T01:14:53.695Z,3.85
2019-02-18T01:17:24.000Z,4.17
2019-02-18T01:19:54.331Z,4.53
2019-02-18T01:22:24.606Z,5.08
2019-02-18T01:24:54.846Z,5.54
2019-02-18T01:27:25.143Z,5.08
2019-02-18T01:29:55.495Z,5.27
2019-02-18T01:32:25.795Z,5.38
2019-02-18T01:34:56.050Z,5.44
2019-02-18T01:37:26.363Z,5.55
2019-02-18T01:39:56.763Z,5.73
2019-02-18T01:42:27.031Z,5.76
2019-02-18T01:44:57.321Z,5.88
2019-02-18T01:47:27.602Z,5.90
2019-02-18T01:49:58.347Z,5.89
2019-02-18T01:52:28.733Z,5.84
2019-02-18T01:54:59.077Z,6.00
2019-02-18T01:57:29.578Z,6.03
2019-02-18T01:59:59.810Z,6.05
2019-02-18T02:02:30.106Z,5.89
2019-02-18T02:05:00.435Z,5.98
2019-02-18T02:07:30.738Z,6.00
2019-02-18T02:10:01.008Z,5.92
2019-02-18T02:12:31.326Z,5.96
2019-02-18T02:15:01.696Z,5.92
2019-02-18T02:17:32.037Z,5.94
2019-02-18T02:20:02.280Z,5.89
2019-02-18T02:22:32.558Z,5.88
2019-02-18T02:25:02.917Z,5.92
2019-02-18T02:27:33.233Z,5.78
2019-02-18T02:30:03.676Z,5.79
2019-02-18T02:32:34.005Z,5.79
2019-02-18T02:35:04.308Z,5.86
2019-02-18T02:37:34.606Z,5.73
2019-02-18T02:40:05.365Z,5.69
2019-02-18T02:42:35.667Z,5.53
2019-02-18T02:45:06.144Z,5.77
2019-02-18T02:47:36.436Z,5.76
2019-02-18T02:50:06.797Z,5.83
2019-02-18T02:52:37.167Z,5.81
2019-02-18T02:55:07.430Z,5.72
2019-02-18T02:57:37.699Z,5.57
2019-02-18T03:00:09.459Z,5.47
2019-02-18T03:02:39.758Z,5.02
2019-02-18T03:05:10.170Z,4.96
2019-02-18T03:07:40.456Z,5.09
2019-02-18T03:10:11.014Z,5.15
2019-02-18T03:12:41.306Z,5.14
2019-02-18T03:15:11.653Z,5.15
2019-02-18T03:17:41.910Z,5.22
2019-02-18T03:20:13.563Z,5.33
2019-02-18T03:22:43.858Z,5.37
2019-02-18T03:25:22.252Z,5.27
2019-02-18T03:27:55.930Z,5.39
2019-02-18T03:30:59.740Z,5.42
2019-02-18T03:33:52.401Z,5.42
2019-02-18T03:36:22.735Z,5.03
2019-02-18T03:38:53.079Z,4.77
2019-02-18T03:41:23.329Z,4.65
2019-02-18T03:43:53.618Z,4.59
2019-02-18T03:46:23.901Z,4.54
2019-02-18T03:48:54.190Z,4.48
2019-02-18T03:51:24.892Z,4.42
2019-02-18T03:53:55.615Z,4.46
2019-02-18T03:56:25.884Z,4.43
2019-02-18T03:58:56.392Z,4.44
2019-02-18T04:01:26.731Z,4.40
2019-02-18T04:03:57.017Z,4.31
2019-02-18T04:06:27.253Z,4.21
2019-02-18T04:08:57.618Z,4.20
2019-02-18T04:11:27.981Z,4.33
2019-02-18T04:13:58.317Z,4.28
2019-02-18T04:16:28.555Z,4.15
2019-02-18T04:18:58.858Z,4.23
2019-02-18T04:21:29.198Z,4.10
2019-02-18T04:23:59.553Z,4.14
2019-02-18T04:26:29.840Z,4.16
2019-02-18T04:29:00.104Z,4.13
2019-02-18T04:31:30.352Z,4.15
2019-02-18T04:34:00.660Z,4.06
2019-02-18T04:36:31.004Z,3.47
2019-02-18T04:39:01.302Z,3.70
2019-02-18T04:41:31.539Z,3.71
2019-02-18T04:44:01.830Z,3.84
2019-02-18T04:46:32.180Z,3.79
2019-02-18T04:49:02.439Z,3.76
2019-02-18T04:51:32.769Z,3.78
2019-02-18T04:54:03.222Z,4.20
2019-02-18T04:56:33.575Z,4.12
2019-02-18T04:59:03.968Z,3.95
2019-02-18T05:01:34.242Z,3.81
2019-02-18T05:04:04.498Z,3.74
2019-02-18T05:06:34.794Z,3.70
2019-02-18T05:09:06.013Z,3.70
2019-02-18T05:11:36.405Z,3.68
2019-02-18T05:14:06.691Z,3.67
2019-02-18T05:16:36.927Z,3.58
2019-02-18T05:19:07.314Z,3.49
2019-02-18T05:21:37.673Z,3.55
2019-02-18T05:24:07.966Z,3.58
2019-02-18T05:26:38.213Z,3.50
2019-02-18T05:29:08.513Z,3.44
2019-02-18T05:31:38.871Z,3.57
2019-02-18T05:34:09.147Z,3.88
2019-02-18T05:36:39.460Z,3.93
2019-02-18T05:39:17.926Z,4.00
2019-02-18T05:41:42.257Z,3.88
2019-02-18T05:44:12.571Z,3.78
2019-02-18T05:46:42.877Z,2.44
2019-02-18T05:49:13.155Z,3.83
2019-02-18T05:51:43.393Z,3.89
2019-02-18T05:54:13.872Z,3.84
2019-02-18T05:56:44.333Z,3.84
2019-02-18T05:59:14.762Z,4.22
2019-02-18T06:01:45.162Z,4.52
2019-02-18T06:04:15.474Z,5.21
2019-02-18T06:06:45.837Z,5.26
2019-02-18T06:09:16.143Z,5.41
2019-02-18T06:11:46.386Z,5.60
2019-02-18T06:14:16.670Z,6.44
2019-02-18T06:16:47.005Z,6.31
2019-02-18T06:19:17.301Z,6.45
2019-02-18T06:21:47.619Z,6.78
2019-02-18T06:24:17.955Z,6.87
2019-02-18T06:26:48.289Z,6.73
2019-02-18T06:29:18.582Z,6.80
2019-02-18T06:31:48.828Z,7.37
2019-02-18T06:34:19.118Z,7.46
2019-02-18T06:36:49.460Z,7.83
2019-02-18T06:39:19.767Z,8.15
2019-02-18T06:41:49.978Z,8.03
2019-02-18T06:44:24.639Z,8.33
2019-02-18T06:47:00.084Z,8.35
2019-02-18T06:49:31.116Z,8.67
2019-02-18T06:52:01.381Z,8.94
2019-02-18T06:54:31.783Z,9.30
2019-02-18T06:57:22.570Z,9.73
2019-02-18T06:59:55.564Z,9.66
2019-02-18T07:02:32.388Z,9.36
2019-02-18T07:05:13.942Z,9.82
2019-02-18T07:08:01.802Z,10.08
2019-02-18T07:10:38.641Z,10.15
2019-02-18T07:13:09.017Z,10.34
2019-02-18T07:15:39.317Z,10.65
2019-02-18T07:18:09.580Z,11.13
2019-02-18T07:20:39.891Z,10.92
2019-02-18T07:23:10.258Z,11.01
2019-02-18T07:25:40.564Z,12.09
2019-02-18T07:28:10.881Z,12.10
2019-02-18T07:30:41.191Z,12.50
2019-02-18T07:33:11.651Z,12.33
2019-02-18T07:35:42.656Z,12.21
2019-02-18T07:38:12.987Z,12.80
2019-02-18T07:40:43.321Z,12.61
2019-02-18T07:43:13.726Z,12.16
2019-02-18T07:45:44.037Z,12.51
2019-02-18T07:48:14.368Z,12.98
2019-02-18T07:50:44.671Z,12.78
2019-02-18T07:53:15.185Z,12.53
2019-02-18T07:55:45.658Z,13.36
2019-02-18T07:58:16.123Z,13.71
2019-02-18T08:00:46.576Z,14.00
2019-02-18T08:03:16.818Z,13.97
2019-02-18T08:05:47.150Z,14.26
2019-02-18T08:08:17.526Z,14.55
2019-02-18T08:10:47.830Z,14.53
2019-02-18T08:13:18.052Z,15.10
2019-02-18T08:15:48.358Z,15.94
2019-02-18T08:18:18.689Z,15.64
2019-02-18T08:20:48.973Z,17.33
2019-02-18T08:23:19.271Z,16.69
2019-02-18T08:25:49.677Z,17.01
2019-02-18T08:28:20.000Z,17.02
2019-02-18T08:30:50.345Z,16.99
2019-02-18T08:33:20.676Z,18.13
2019-02-18T08:35:51.012Z,19.12
2019-02-18T08:38:21.251Z,18.32
2019-02-18T08:40:51.533Z,17.78
2019-02-18T08:43:21.873Z,19.06
2019-02-18T08:45:52.166Z,19.57
2019-02-18T08:48:24.072Z,18.36
2019-02-18T08:50:54.582Z,19.57
2019-02-18T08:53:24.942Z,18.66
2019-02-18T08:55:55.309Z,18.64
2019-02-18T08:58:25.657Z,18.30
2019-02-18T09:01:02.613Z,18.44
2019-02-18T09:03:27.997Z,18.02
2019-02-18T09:05:58.272Z,18.03
2019-02-18T09:08:28.645Z,18.26
2019-02-18T09:10:58.951Z,19.41
2019-02-18T09:13:29.188Z,19.36
2019-02-18T09:16:00.478Z,19.37
2019-02-18T09:18:30.993Z,19.46
2019-02-18T09:21:01.270Z,18.93
2019-02-18T09:23:42.524Z,19.47
2019-02-18T09:26:15.663Z,19.42
2019-02-18T09:28:46.004Z,19.94
2019-02-18T09:31:17.931Z,20.53
2019-02-18T09:33:48.166Z,20.71
2019-02-18T09:36:18.472Z,21.37
2019-02-18T09:38:48.822Z,20.32
2019-02-18T09:41:19.120Z,20.34
2019-02-18T09:43:49.343Z,21.08
2019-02-18T09:46:19.646Z,21.53
2019-02-18T09:48:49.920Z,21.46
2019-02-18T09:51:20.245Z,22.09
2019-02-18T09:53:50.606Z,22.07
2019-02-18T09:56:21.387Z,22.29
2019-02-18T09:58:51.803Z,22.62
2019-02-18T10:01:22.755Z,22.69
2019-02-18T10:03:55.431Z,22.16
2019-02-18T10:06:25.700Z,22.35
2019-02-18T10:08:55.954Z,23.91
2019-02-18T10:11:26.294Z,23.30
2019-02-18T10:13:56.663Z,23.22
2019-02-18T10:16:26.972Z,23.12
2019-02-18T10:18:57.222Z,22.83
2019-02-18T10:21:27.535Z,24.35
2019-02-18T10:23:57.970Z,23.73
2019-02-18T10:26:28.257Z,23.41
2019-02-18T10:28:58.555Z,22.59
2019-02-18T10:31:28.859Z,23.14
2019-02-18T10:33:59.100Z,23.32
2019-02-18T10:36:29.392Z,24.77
2019-02-18T10:38:59.729Z,25.71
2019-02-18T10:41:30.146Z,26.08
2019-02-18T10:44:00.383Z,26.29
2019-02-18T10:46:30.699Z,24.73
2019-02-18T10:49:01.065Z,25.57
2019-02-18T10:51:31.354Z,24.98
2019-02-18T10:54:01.677Z,24.60
2019-02-18T10:56:32.340Z,25.43
2019-02-18T10:59:02.785Z,25.16
2019-02-18T11:01:33.132Z,25.76
2019-02-18T11:04:03.471Z,25.76
2019-02-18T11:06:33.762Z,26.31
2019-02-18T11:09:06.020Z,25.92
2019-02-18T11:11:36.300Z,26.38
2019-02-18T11:14:07.191Z,25.91
2019-02-18T11:16:38.358Z,25.48
2019-02-18T11:19:08.870Z,25.17
2019-02-18T11:21:39.379Z,25.51
2019-02-18T11:24:10.483Z,26.16
2019-02-18T11:26:41.466Z,26.83
2019-02-18T11:29:12.324Z,27.00
2019-02-18T11:31:43.101Z,26.79
2019-02-18T11:34:13.660Z,27.17
2019-02-18T11:36:44.617Z,26.62
2019-02-18T11:39:15.769Z,27.33
2019-02-18T11:41:47.045Z,26.46
2019-02-18T11:44:17.382Z,26.11
2019-02-18T11:46:47.742Z,26.99
2019-02-18T11:49:17.984Z,26.05
2019-02-18T11:51:48.273Z,26.27
2019-02-18T11:54:19.138Z,27.64
2019-02-18T11:56:49.751Z,28.55
2019-02-18T11:59:24.248Z,28.94
2019-02-18T12:01:52.365Z,27.99
2019-02-18T12:04:22.886Z,28.39
2019-02-18T12:06:53.599Z,27.50
2019-02-18T12:09:23.837Z,28.49
2019-02-18T12:11:54.138Z,26.98
2019-02-18T12:14:24.484Z,27.69
2019-02-18T12:16:54.897Z,26.98
2019-02-18T12:19:25.547Z,26.74
2019-02-18T12:21:56.668Z,27.33
2019-02-18T12:24:28.186Z,26.83
2019-02-18T12:26:59.897Z,26.27
2019-02-18T12:29:31.018Z,25.63
2019-02-18T12:32:21.403Z,26.00
2019-02-18T12:34:51.870Z,26.52
2019-02-18T12:37:22.265Z,26.67
2019-02-18T12:39:53.527Z,26.28
2019-02-18T12:42:23.833Z,26.73
2019-02-18T12:44:54.748Z,27.05
2019-02-18T12:47:25.096Z,27.81
2019-02-18T12:49:55.894Z,29.31
2019-02-18T12:52:26.340Z,29.01
2019-02-18T12:54:56.707Z,28.54
2019-02-18T12:57:27.194Z,27.53
2019-02-18T12:59:58.036Z,27.40
2019-02-18T13:02:28.383Z,26.83
2019-02-18T13:04:58.633Z,26.78
2019-02-18T13:07:28.975Z,28.13
2019-02-18T13:09:59.231Z,27.29
2019-02-18T13:12:29.646Z,26.84
2019-02-18T13:15:00.100Z,26.07
2019-02-18T13:17:30.626Z,26.17
2019-02-18T13:20:00.872Z,26.95
2019-02-18T13:22:31.403Z,26.66
2019-02-18T13:25:01.743Z,26.09
2019-02-18T13:27:31.994Z,25.21
2019-02-18T13:30:02.240Z,25.66
2019-02-18T13:32:32.635Z,26.07
2019-02-18T13:35:03.291Z,27.08
2019-02-18T13:37:34.003Z,27.33
2019-02-18T13:40:04.519Z,27.50
2019-02-18T13:42:34.940Z,25.91
2019-02-18T13:45:05.775Z,24.79
2019-02-18T13:47:36.446Z,24.96
2019-02-18T13:50:27.622Z,25.80
2019-02-18T13:52:58.413Z,26.02
2019-02-18T13:55:28.832Z,25.33
2019-02-18T13:57:59.165Z,25.68
2019-02-18T14:00:30.902Z,25.57
2019-02-18T14:03:01.327Z,25.17
2019-02-18T14:05:31.577Z,25.47
2019-02-18T14:08:02.189Z,26.18
2019-02-18T14:10:32.524Z,25.14
2019-02-18T14:13:02.774Z,24.85
2019-02-18T14:15:33.082Z,24.68
2019-02-18T14:18:03.688Z,24.74
2019-02-18T14:20:34.910Z,25.38
2019-02-18T14:23:05.689Z,24.57
2019-02-18T14:25:36.211Z,25.33
2019-02-18T14:28:07.312Z,25.35
2019-02-18T14:30:38.435Z,25.95
2019-02-18T14:33:08.696Z,25.79
2019-02-18T14:35:38.938Z,25.72
2019-02-18T14:38:09.350Z,25.86
2019-02-18T14:40:39.971Z,26.14
2019-02-18T14:43:10.222Z,26.35
2019-02-18T14:45:40.491Z,25.16
2019-02-18T14:48:11.442Z,25.12
2019-02-18T14:50:41.791Z,24.97
2019-02-18T14:53:12.721Z,24.20
2019-02-18T14:55:43.184Z,23.92
2019-02-18T14:58:13.774Z,23.91
2019-02-18T15:00:45.688Z,22.68
2019-02-18T15:03:15.949Z,22.10
2019-02-18T15:05:46.277Z,20.85
2019-02-18T15:08:16.721Z,20.18
2019-02-18T15:10:46.971Z,19.14
2019-02-18T15:13:17.318Z,18.46
2019-02-18T15:15:47.934Z,18.11
2019-02-18T15:18:18.246Z,17.78
2019-02-18T15:20:48.480Z,18.33
2019-02-18T15:23:18.820Z,18.15
2019-02-18T15:25:49.156Z,18.82
2019-02-18T15:28:19.461Z,19.21
2019-02-18T15:30:49.785Z,19.05
2019-02-18T15:33:20.207Z,18.49
2019-02-18T15:35:50.560Z,18.41
2019-02-18T15:38:20.837Z,17.75
2019-02-18T15:40:51.072Z,17.43
2019-02-18T15:43:21.815Z,17.25
2019-02-18T15:45:52.165Z,17.06
2019-02-18T15:48:22.417Z,16.77
2019-02-18T15:50:52.771Z,16.45
2019-02-18T15:53:23.116Z,15.46
2019-02-18T15:55:54.198Z,15.45
2019-02-18T15:58:24.706Z,15.58
2019-02-18T16:00:55.051Z,16.13
2019-02-18T16:03:25.370Z,15.49
2019-02-18T16:05:55.618Z,14.98
2019-02-18T16:08:25.961Z,14.96
2019-02-18T16:10:56.303Z,15.54
2019-02-18T16:13:26.568Z,15.21
2019-02-18T16:15:56.817Z,14.76
2019-02-18T16:18:27.191Z,15.22
2019-02-18T16:20:57.532Z,15.58
2019-02-18T16:23:27.793Z,15.60
2019-02-18T16:25:58.042Z,15.47
2019-02-18T16:28:28.388Z,15.41
2019-02-18T16:30:58.623Z,15.55
2019-02-18T16:33:28.967Z,15.58
2019-02-18T16:35:59.334Z,15.44
2019-02-18T16:38:29.654Z,15.36
2019-02-18T16:40:59.899Z,15.39
2019-02-18T16:43:30.625Z,15.24
2019-02-18T16:46:01.041Z,15.21
2019-02-18T16:48:31.679Z,14.77
2019-02-18T16:51:02.129Z,13.76
2019-02-18T16:53:32.634Z,14.20
2019-02-18T16:56:03.126Z,14.32
2019-02-18T16:58:33.410Z,14.46
2019-02-18T17:01:05.030Z,14.51
2019-02-18T17:03:35.856Z,14.40
2019-02-18T17:06:06.198Z,14.34
2019-02-18T17:08:36.451Z,14.27
2019-02-18T17:11:06.723Z,13.43
2019-02-18T17:13:37.092Z,13.53
2019-02-18T17:16:07.435Z,12.61
2019-02-18T17:18:37.855Z,12.44
2019-02-18T17:21:08.102Z,12.16
2019-02-18T17:23:38.451Z,12.90
2019-02-18T17:26:08.806Z,13.28
2019-02-18T17:28:39.062Z,13.30
2019-02-18T17:31:09.322Z,13.36
2019-02-18T17:33:39.653Z,12.82
2019-02-18T17:36:09.993Z,11.99
2019-02-18T17:38:40.318Z,11.95
2019-02-18T17:41:10.585Z,11.89
2019-02-18T17:43:40.917Z,11.80
2019-02-18T17:46:11.602Z,11.69
2019-02-18T17:48:41.866Z,11.01
2019-02-18T17:51:12.217Z,10.76
2019-02-18T17:53:42.626Z,11.18
2019-02-18T17:56:12.882Z,11.51
2019-02-18T17:58:43.348Z,12.05
2019-02-18T18:01:13.679Z,12.56
2019-02-18T18:03:43.914Z,12.54
2019-02-18T18:06:14.165Z,12.29
2019-02-18T18:08:44.511Z,11.87
2019-02-18T18:11:14.871Z,12.17
2019-02-18T18:13:45.701Z,12.14
2019-02-18T18:16:15.946Z,12.22
2019-02-18T18:18:46.279Z,12.41
2019-02-18T18:21:16.625Z,12.60
2019-02-18T18:23:46.877Z,12.63
2019-02-18T18:26:17.131Z,12.62
2019-02-18T18:28:47.477Z,12.25
2019-02-18T18:31:17.729Z,12.20
2019-02-18T18:33:48.089Z,12.19
2019-02-18T18:36:18.524Z,12.35
2019-02-18T18:38:48.778Z,12.40
2019-02-18T18:41:19.402Z,11.72
2019-02-18T18:43:49.750Z,12.03
2019-02-18T18:46:20.207Z,12.00
2019-02-18T18:48:50.464Z,11.86
2019-02-18T18:51:20.712Z,11.97
2019-02-18T18:53:51.361Z,11.94
2019-02-18T18:56:21.835Z,11.96
2019-02-18T18:58:52.074Z,11.92
2019-02-18T19:01:22.416Z,11.81
2019-02-18T19:03:52.771Z,11.77
2019-02-18T19:06:23.112Z,11.80
2019-02-18T19:08:53.364Z,11.78
2019-02-18T19:11:23.699Z,11.77
2019-02-18T19:13:53.980Z,11.65
2019-02-18T19:16:24.225Z,11.73
2019-02-18T19:18:54.553Z,11.68
2019-02-18T19:21:25.181Z,11.62
2019-02-18T19:23:55.436Z,11.58
2019-02-18T19:26:25.741Z,11.56
2019-02-18T19:28:56.138Z,11.52
2019-02-18T19:31:26.475Z,11.46
2019-02-18T19:33:57.104Z,11.33
2019-02-18T19:36:27.376Z,11.35
2019-02-18T19:38:57.724Z,11.22
2019-02-18T19:41:28.067Z,11.28
2019-02-18T19:43:58.585Z,11.25
2019-02-18T19:46:28.819Z,11.20
2019-02-18T19:48:59.172Z,11.12
2019-02-18T19:51:29.406Z,10.90
2019-02-18T19:54:00.166Z,10.73
2019-02-18T19:56:30.503Z,10.79
2019-02-18T19:59:00.746Z,9.75
2019-02-18T20:01:31.104Z,10.44
2019-02-18T20:04:01.443Z,10.72
2019-02-18T20:06:31.887Z,10.82
2019-02-18T20:09:02.144Z,10.92
2019-02-18T20:11:32.504Z,11.07
2019-02-18T20:14:03.326Z,11.06
2019-02-18T20:16:33.665Z,10.76
2019-02-18T20:19:03.916Z,10.65
2019-02-18T20:21:34.171Z,10.68
2019-02-18T20:24:04.511Z,10.69
2019-02-18T20:26:34.842Z,10.39
2019-02-18T20:29:05.082Z,10.32
2019-02-18T20:31:35.453Z,10.47
2019-02-18T20:34:05.713Z,10.63
2019-02-18T20:36:36.000Z,10.60
2019-02-18T20:39:07.933Z,10.63
2019-02-18T20:41:38.361Z,10.63
2019-02-18T20:44:08.681Z,10.65
2019-02-18T20:46:38.941Z,10.66
2019-02-18T20:49:09.295Z,10.67
2019-02-18T20:51:39.646Z,10.59
2019-02-18T20:54:10.271Z,10.60
2019-02-18T20:56:40.672Z,10.27
2019-02-18T20:59:11.025Z,10.36
2019-02-18T21:01:41.378Z,10.27
2019-02-18T21:04:11.614Z,9.15
2019-02-18T21:06:41.875Z,9.00
2019-02-18T21:09:12.220Z,9.05
2019-02-18T21:11:42.467Z,9.02
2019-02-18T21:14:16.059Z,9.41
2019-02-18T21:16:44.876Z,9.66
2019-02-18T21:19:15.112Z,9.76
2019-02-18T21:21:45.367Z,9.82
2019-02-18T21:24:15.737Z,9.87
2019-02-18T21:26:46.087Z,9.91
2019-02-18T21:29:17.293Z,10.01
2019-02-18T21:31:47.651Z,9.96
2019-02-18T21:34:18.346Z,9.71
2019-02-18T21:36:48.940Z,9.65
2019-02-18T21:39:19.193Z,9.36
2019-02-18T21:41:49.439Z,9.06
2019-02-18T21:44:25.219Z,9.20
2019-02-18T21:46:51.831Z,9.47
2019-02-18T21:49:22.128Z,9.46
2019-02-18T21:51:52.531Z,9.55
2019-02-18T21:54:22.785Z,9.59
2019-02-18T21:56:53.090Z,9.58
2019-02-18T21:59:23.713Z,9.59
2019-02-18T22:01:54.421Z,9.52
2019-02-18T22:04:25.364Z,9.19
2019-02-18T22:06:55.603Z,9.01
2019-02-18T22:09:25.932Z,8.75
2019-02-18T22:11:56.349Z,8.55
2019-02-18T22:14:33.210Z,8.67
2019-02-18T22:16:58.667Z,8.79
2019-02-18T22:19:29.002Z,8.78
2019-02-18T22:21:59.329Z,8.84
2019-02-18T22:24:29.561Z,8.70
2019-02-18T22:26:59.798Z,8.50
2019-02-18T22:29:31.098Z,8.56
2019-02-18T22:32:01.435Z,8.68
2019-02-18T22:34:31.701Z,8.63
2019-02-18T22:37:02.091Z,8.62
2019-02-18T22:39:32.469Z,8.62
2019-02-18T22:42:02.809Z,8.61
2019-02-18T22:44:41.581Z,8.54
2019-02-18T22:47:05.302Z,8.55
2019-02-18T22:49:35.641Z,7.84
2019-02-18T22:52:05.967Z,7.61
2019-02-18T22:54:36.294Z,8.06
2019-02-18T22:57:07.013Z,8.16
2019-02-18T22:59:37.497Z,8.24
2019-02-18T23:02:09.329Z,8.02
2019-02-18T23:04:39.739Z,7.92
2019-02-18T23:07:09.995Z,7.86
2019-02-18T23:09:40.320Z,7.87
2019-02-18T23:12:10.939Z,7.85
2019-02-18T23:14:41.269Z,7.81
2019-02-18T23:17:11.603Z,7.73
2019-02-18T23:19:41.856Z,7.69
2019-02-18T23:22:12.105Z,7.62
2019-02-18T23:24:42.434Z,7.44
2019-02-18T23:27:13.038Z,7.48
2019-02-18T23:29:43.281Z,7.40
2019-02-18T23:32:13.529Z,7.09
2019-02-18T23:34:43.970Z,7.08
2019-02-18T23:37:14.296Z,7.10
2019-02-18T23:39:44.535Z,7.03
2019-02-18T23:42:14.766Z,7.02
2019-02-18T23:44:45.117Z,7.09
2019-02-18T23:47:15.451Z,7.04
2019-02-18T23:49:45.697Z,6.99
2019-02-18T23:52:16.040Z,6.94
2019-02-18T23:54:46.270Z,6.85
2019-02-18T23:57:16.718Z,6.83
2019-02-18T23:59:47.438Z,6.90
